createdAt,value
2022-09-14T00:01:47.029Z,56.47
2022-09-14T00:04:19.163Z,56.67
2022-09-14T00:06:49.229Z,56.81
2022-09-14T00:09:19.726Z,57.19
2022-09-14T00:11:48.133Z,57.71
2022-09-14T00:14:17.117Z,57.56
2022-09-14T00:16:45.677Z,58.22
2022-09-14T00:19:20.539Z,58.17
2022-09-14T00:21:53.220Z,58.57
2022-09-14T00:24:22.410Z,58.86
2022-09-14T00:26:51.017Z,58.33
2022-09-14T00:29:19.719Z,58.82
2022-09-14T00:31:48.013Z,58.82
2022-09-14T00:34:17.807Z,58.96
2022-09-14T00:36:50.072Z,59.54
2022-09-14T00:39:23.584Z,59.25
2022-09-14T00:41:52.568Z,59.25
2022-09-14T00:45:05.686Z,59.63
2022-09-14T00:47:34.888Z,60.30
2022-09-14T00:50:06.909Z,60.17
2022-09-14T00:52:41.946Z,60.11
2022-09-14T00:55:15.623Z,60.04
2022-09-14T00:57:49.874Z,60.70
2022-09-14T01:00:24.447Z,60.08
2022-09-14T01:02:53.073Z,60.06
2022-09-14T01:05:36.736Z,60.16
2022-09-14T01:08:38.279Z,59.56
2022-09-14T01:11:36.745Z,58.60
2022-09-14T01:14:15.785Z,57.51
2022-09-14T01:16:58.538Z,57.16
2022-09-14T01:19:46.182Z,57.67
2022-09-14T01:22:24.838Z,56.97
2022-09-14T01:25:03.030Z,57.13
2022-09-14T01:27:41.663Z,56.55
2022-09-14T01:30:13.734Z,56.59
2022-09-14T01:32:51.014Z,56.39
2022-09-14T01:35:29.484Z,56.33
2022-09-14T01:38:03.997Z,56.80
2022-09-14T01:40:37.834Z,57.01
2022-09-14T01:43:13.982Z,56.58
2022-09-14T01:45:49.422Z,56.99
2022-09-14T01:48:24.920Z,57.11
2022-09-14T01:50:57.274Z,57.18
2022-09-14T01:53:35.605Z,56.72
2022-09-14T01:56:15.181Z,56.68
2022-09-14T01:58:51.413Z,57.76
2022-09-14T02:01:27.129Z,58.06
2022-09-14T02:04:07.313Z,57.66
2022-09-14T02:06:40.201Z,58.22
2022-09-14T02:09:13.345Z,57.56
2022-09-14T02:11:41.534Z,57.81
2022-09-14T02:14:11.334Z,58.09
2022-09-14T02:16:43.880Z,57.98
2022-09-14T02:19:13.395Z,57.17
2022-09-14T02:21:41.805Z,57.10
2022-09-14T02:24:11.145Z,57.01
2022-09-14T02:26:41.282Z,57.06
2022-09-14T02:29:10.634Z,57.26
2022-09-14T02:32:04.646Z,57.44
2022-09-14T02:34:45.820Z,57.38
2022-09-14T02:37:21.133Z,57.71
2022-09-14T02:40:06.002Z,58.02
2022-09-14T02:42:47.924Z,57.94
2022-09-14T02:45:29.525Z,57.86
2022-09-14T02:48:06.120Z,57.95
2022-09-14T02:50:42.716Z,57.91
2022-09-14T02:53:18.959Z,57.86
2022-09-14T02:55:54.078Z,57.85
2022-09-14T02:58:21.893Z,57.48
2022-09-14T03:00:51.224Z,57.46
2022-09-14T03:03:21.719Z,57.58
2022-09-14T03:05:49.549Z,57.43
2022-09-14T03:08:17.449Z,57.56
2022-09-14T03:10:45.261Z,57.93
2022-09-14T03:13:13.088Z,57.34
2022-09-14T03:15:41.218Z,57.65
2022-09-14T03:18:14.400Z,57.52
2022-09-14T03:20:43.384Z,57.25
2022-09-14T03:23:13.096Z,57.16
2022-09-14T03:25:43.653Z,57.50
2022-09-14T03:28:12.837Z,57.41
2022-09-14T03:30:41.121Z,57.23
2022-09-14T03:33:11.063Z,56.98
2022-09-14T03:35:38.956Z,57.31
2022-09-14T03:38:06.964Z,57.44
2022-09-14T03:40:34.786Z,57.31
2022-09-14T03:43:02.646Z,56.72
2022-09-14T03:45:30.536Z,56.84
2022-09-14T03:47:58.409Z,57.26
2022-09-14T03:50:27.804Z,57.33
2022-09-14T03:52:56.153Z,57.27
2022-09-14T03:55:24.403Z,57.18
2022-09-14T03:57:55.512Z,57.33
2022-09-14T04:00:23.973Z,57.05
2022-09-14T04:02:51.927Z,57.60
2022-09-14T04:05:21.802Z,57.50
2022-09-14T04:07:51.263Z,57.64
2022-09-14T04:10:19.106Z,57.16
2022-09-14T04:12:47.131Z,57.56
2022-09-14T04:15:15.141Z,57.28
2022-09-14T04:17:42.982Z,57.21
2022-09-14T04:20:10.988Z,57.82
2022-09-14T04:22:38.744Z,57.59
2022-09-14T04:25:09.386Z,57.64
2022-09-14T04:27:37.275Z,57.74
2022-09-14T04:30:06.783Z,57.37
2022-09-14T04:32:34.783Z,58.04
2022-09-14T04:35:02.741Z,57.98
2022-09-14T04:37:32.141Z,57.49
2022-09-14T04:40:00.305Z,57.77
2022-09-14T04:42:31.351Z,57.85
2022-09-14T04:44:59.088Z,58.48
2022-09-14T04:47:28.983Z,58.76
2022-09-14T04:49:57.127Z,58.61
2022-09-14T04:52:26.141Z,58.68
2022-09-14T04:54:54.032Z,58.24
2022-09-14T04:57:21.850Z,58.18
2022-09-14T04:59:51.122Z,58.27
2022-09-14T05:02:19.635Z,57.81
2022-09-14T05:04:47.445Z,58.54
2022-09-14T05:07:15.205Z,58.78
2022-09-14T05:09:43.564Z,58.67
2022-09-14T05:12:11.352Z,58.24
2022-09-14T05:14:39.145Z,58.53
2022-09-14T05:17:08.953Z,58.41
2022-09-14T05:19:36.899Z,58.30
2022-09-14T05:22:04.631Z,57.96
2022-09-14T05:24:32.569Z,58.38
2022-09-14T05:27:02.198Z,58.47
2022-09-14T05:29:31.743Z,58.11
2022-09-14T05:31:59.930Z,58.36
2022-09-14T05:34:30.263Z,58.45
2022-09-14T05:36:58.019Z,57.62
2022-09-14T05:39:25.936Z,57.86
2022-09-14T05:41:53.988Z,58.00
2022-09-14T05:44:21.959Z,58.04
2022-09-14T05:46:49.922Z,56.92
2022-09-14T05:49:17.894Z,57.39
2022-09-14T05:51:47.121Z,57.36
2022-09-14T05:54:16.706Z,57.20
2022-09-14T05:56:44.861Z,56.82
2022-09-14T05:59:13.103Z,57.77
2022-09-14T06:01:42.061Z,58.37
2022-09-14T06:04:11.428Z,59.28
2022-09-14T06:06:39.307Z,58.94
2022-09-14T06:09:08.584Z,59.29
2022-09-14T06:11:37.662Z,60.13
2022-09-14T06:14:06.332Z,61.04
2022-09-14T06:16:34.916Z,61.25
2022-09-14T06:19:03.580Z,61.13
2022-09-14T06:21:35.190Z,60.92
2022-09-14T06:24:03.939Z,61.58
2022-09-14T06:26:33.454Z,62.09
2022-09-14T06:29:01.398Z,61.64
2022-09-14T06:31:29.372Z,61.98
2022-09-14T06:33:57.249Z,61.84
2022-09-14T06:36:28.243Z,62.42
2022-09-14T06:38:58.684Z,61.20
2022-09-14T06:41:32.868Z,64.22
2022-09-14T06:44:03.500Z,65.04
2022-09-14T06:46:34.442Z,65.47
2022-09-14T06:49:06.589Z,66.55
2022-09-14T06:51:38.825Z,67.06
2022-09-14T06:54:07.874Z,65.61
2022-09-14T06:56:39.045Z,66.75
2022-09-14T06:59:11.380Z,67.30
2022-09-14T07:01:39.786Z,68.84
2022-09-14T07:04:08.666Z,68.81
2022-09-14T07:06:40.941Z,68.84
2022-09-14T07:09:09.154Z,69.18
2022-09-14T07:11:38.972Z,67.60
2022-09-14T07:14:09.332Z,69.90
2022-09-14T07:16:39.482Z,69.97
2022-09-14T07:19:11.710Z,67.74
2022-09-14T07:21:40.570Z,67.86
2022-09-14T07:24:08.638Z,66.75
2022-09-14T07:26:40.469Z,67.45
2022-09-14T07:29:14.169Z,71.15
2022-09-14T07:31:46.563Z,70.43
2022-09-14T07:34:15.547Z,71.47
2022-09-14T07:36:43.642Z,71.99
2022-09-14T07:39:14.362Z,71.20
2022-09-14T07:41:43.558Z,71.16
2022-09-14T07:44:17.277Z,69.58
2022-09-14T07:46:46.810Z,70.16
2022-09-14T07:49:16.156Z,70.73
2022-09-14T07:51:44.698Z,71.26
2022-09-14T07:54:17.028Z,71.58
2022-09-14T07:56:49.232Z,71.34
2022-09-14T07:59:38.238Z,71.55
2022-09-14T08:02:08.032Z,70.14
2022-09-14T08:04:36.229Z,71.03
2022-09-14T08:07:04.086Z,69.28
2022-09-14T08:09:32.041Z,69.81
2022-09-14T08:12:00.438Z,69.76
2022-09-14T08:14:29.574Z,71.07
2022-09-14T08:16:57.520Z,70.94
2022-09-14T08:19:26.938Z,68.95
2022-09-14T08:21:55.357Z,69.71
2022-09-14T08:24:23.776Z,70.41
2022-09-14T08:26:52.574Z,70.64
2022-09-14T08:29:22.761Z,70.57
2022-09-14T08:31:54.490Z,70.40
2022-09-14T08:34:22.318Z,68.85
2022-09-14T08:36:50.638Z,69.73
2022-09-14T08:39:18.807Z,70.29
2022-09-14T08:41:54.110Z,69.73
2022-09-14T08:44:30.405Z,71.13
2022-09-14T08:47:07.000Z,71.75
2022-09-14T08:49:47.364Z,70.87
2022-09-14T08:52:26.406Z,70.23
2022-09-14T08:54:57.008Z,69.01
2022-09-14T08:57:37.463Z,68.65
2022-09-14T09:00:12.880Z,69.03
2022-09-14T09:03:24.703Z,67.34
2022-09-14T09:06:15.148Z,67.79
2022-09-14T09:09:02.633Z,67.26
2022-09-14T09:11:39.521Z,68.57
2022-09-14T09:14:20.022Z,67.63
2022-09-14T09:16:53.895Z,67.82
2022-09-14T09:19:29.002Z,66.08
2022-09-14T09:22:03.740Z,65.45
2022-09-14T09:24:37.648Z,63.79
2022-09-14T09:27:17.016Z,63.45
2022-09-14T09:29:47.729Z,62.99
2022-09-14T09:32:22.017Z,64.23
2022-09-14T09:35:19.835Z,64.58
2022-09-14T09:38:15.829Z,63.92
2022-09-14T09:40:51.929Z,65.46
2022-09-14T09:43:45.287Z,64.96
2022-09-14T09:46:09.410Z,64.90
2022-09-14T09:48:42.924Z,65.87
2022-09-14T09:51:15.827Z,65.11
2022-09-14T09:53:52.846Z,65.75
2022-09-14T09:56:24.016Z,65.57
2022-09-14T09:58:54.912Z,65.13
2022-09-14T10:01:29.191Z,66.84
2022-09-14T10:04:06.889Z,64.83
2022-09-14T10:06:44.611Z,67.78
2022-09-14T10:09:15.492Z,66.65
2022-09-14T10:11:45.678Z,64.22
2022-09-14T10:14:25.111Z,63.11
2022-09-14T10:16:53.774Z,62.06
2022-09-14T10:19:26.636Z,60.77
2022-09-14T10:22:21.950Z,61.38
2022-09-14T10:24:57.703Z,61.48
2022-09-14T10:27:42.259Z,61.73
2022-09-14T10:30:17.207Z,62.88
2022-09-14T10:32:54.866Z,62.93
2022-09-14T10:35:35.191Z,62.18
2022-09-14T10:38:31.963Z,60.91
2022-09-14T10:41:12.307Z,61.99
2022-09-14T10:44:02.547Z,61.93
2022-09-14T10:46:43.449Z,64.20
2022-09-14T10:49:37.848Z,65.81
2022-09-14T10:52:22.461Z,65.71
2022-09-14T10:55:14.345Z,66.40
2022-09-14T10:57:55.579Z,66.80
2022-09-14T11:00:23.730Z,65.34
2022-09-14T11:03:19.458Z,65.44
2022-09-14T11:06:02.670Z,66.58
2022-09-14T11:08:37.460Z,64.39
2022-09-14T11:11:30.600Z,64.80
2022-09-14T11:14:18.172Z,64.86
2022-09-14T11:17:07.168Z,63.71
2022-09-14T11:19:48.676Z,64.51
2022-09-14T11:22:30.693Z,63.35
2022-09-14T11:25:06.286Z,64.36
2022-09-14T11:27:43.827Z,63.38
2022-09-14T11:30:17.757Z,62.32
2022-09-14T11:32:53.457Z,61.88
2022-09-14T11:35:30.091Z,61.43
2022-09-14T11:38:02.032Z,60.73
2022-09-14T11:40:36.734Z,59.42
2022-09-14T11:43:15.308Z,59.05
2022-09-14T11:45:50.165Z,61.78
2022-09-14T11:48:43.968Z,60.62
2022-09-14T11:51:19.224Z,60.24
2022-09-14T11:53:47.354Z,61.47
2022-09-14T11:56:28.341Z,61.11
2022-09-14T11:59:03.767Z,60.77
2022-09-14T12:01:37.349Z,60.61
2022-09-14T12:04:10.619Z,59.77
2022-09-14T12:06:48.004Z,59.91
2022-09-14T12:09:42.903Z,61.72
2022-09-14T12:12:33.507Z,60.85
2022-09-14T12:15:33.982Z,61.26
2022-09-14T12:18:23.355Z,60.18
2022-09-14T12:21:02.797Z,59.01
2022-09-14T12:23:42.735Z,58.94
2022-09-14T12:26:38.883Z,58.81
2022-09-14T12:29:26.878Z,58.77
2022-09-14T12:32:25.745Z,58.85
2022-09-14T12:35:46.278Z,57.78
2022-09-14T12:38:42.480Z,58.37
2022-09-14T12:42:00.925Z,58.95
2022-09-14T12:44:38.419Z,60.09
2022-09-14T12:47:59.563Z,58.20
2022-09-14T12:50:35.575Z,58.27
2022-09-14T12:53:30.819Z,58.49
2022-09-14T12:56:05.337Z,57.50
2022-09-14T12:59:07.193Z,57.46
2022-09-14T13:01:46.247Z,57.25
2022-09-14T13:04:23.646Z,58.92
2022-09-14T13:06:55.953Z,57.67
2022-09-14T13:09:27.580Z,57.84
2022-09-14T13:11:58.784Z,57.66
2022-09-14T13:14:31.697Z,58.52
2022-09-14T13:17:03.254Z,57.00
2022-09-14T13:19:34.053Z,58.74
2022-09-14T13:22:17.869Z,56.53
2022-09-14T13:24:49.023Z,53.68
2022-09-14T13:27:24.051Z,53.36
2022-09-14T13:30:00.435Z,54.07
2022-09-14T13:32:28.925Z,55.21
2022-09-14T13:34:58.423Z,55.13
2022-09-14T13:37:26.386Z,55.04
2022-09-14T13:39:58.893Z,55.49
2022-09-14T13:42:27.339Z,55.23
2022-09-14T13:44:55.377Z,54.88
2022-09-14T13:47:25.928Z,55.06
2022-09-14T13:49:55.264Z,54.73
2022-09-14T13:53:00.669Z,53.65
2022-09-14T13:55:28.241Z,53.44
2022-09-14T13:58:14.245Z,54.03
2022-09-14T14:00:59.851Z,54.78
2022-09-14T14:03:34.297Z,53.18
2022-09-14T14:06:20.575Z,52.38
2022-09-14T14:09:01.356Z,54.38
2022-09-14T14:11:37.960Z,53.00
2022-09-14T14:14:22.103Z,53.57
2022-09-14T14:17:23.368Z,53.52
2022-09-14T14:19:54.187Z,52.73
2022-09-14T14:22:27.347Z,51.87
2022-09-14T14:25:14.517Z,53.80
2022-09-14T14:27:46.076Z,54.08
2022-09-14T14:30:17.889Z,53.78
2022-09-14T14:32:50.832Z,51.37
2022-09-14T14:35:22.332Z,51.07
2022-09-14T14:37:50.993Z,51.30
2022-09-14T14:40:21.009Z,51.03
2022-09-14T14:42:51.368Z,51.90
2022-09-14T14:45:24.516Z,52.98
2022-09-14T14:47:54.508Z,51.91
2022-09-14T14:50:29.013Z,52.61
2022-09-14T14:52:57.150Z,53.40
2022-09-14T14:55:31.710Z,54.51
2022-09-14T14:58:03.022Z,53.46
2022-09-14T15:00:34.830Z,52.64
2022-09-14T15:03:03.200Z,53.00
2022-09-14T15:05:32.353Z,52.74
2022-09-14T15:08:00.868Z,54.38
2022-09-14T15:10:30.627Z,53.84
2022-09-14T15:12:58.495Z,54.13
2022-09-14T15:15:26.724Z,54.11
2022-09-14T15:17:54.961Z,54.04
2022-09-14T15:20:22.979Z,54.27
2022-09-14T15:22:51.527Z,55.07
2022-09-14T15:25:21.297Z,55.32
2022-09-14T15:27:50.566Z,55.57
2022-09-14T15:30:18.580Z,54.79
2022-09-14T15:32:46.722Z,55.26
2022-09-14T15:35:15.742Z,55.35
2022-09-14T15:37:43.624Z,55.94
2022-09-14T15:40:12.109Z,55.88
2022-09-14T15:42:40.042Z,56.54
2022-09-14T15:45:10.830Z,56.11
2022-09-14T15:47:42.386Z,56.52
2022-09-14T15:50:11.697Z,56.45
2022-09-14T15:52:40.351Z,56.51
2022-09-14T15:55:11.924Z,56.34
2022-09-14T15:57:40.091Z,56.20
2022-09-14T16:00:13.658Z,56.83
2022-09-14T16:02:41.607Z,56.50
2022-09-14T16:05:10.874Z,56.42
2022-09-14T16:07:39.570Z,56.73
2022-09-14T16:10:09.075Z,57.09
2022-09-14T16:12:36.992Z,57.22
2022-09-14T16:15:06.176Z,57.92
2022-09-14T16:17:36.715Z,58.65
2022-09-14T16:20:06.197Z,59.42
2022-09-14T16:22:34.218Z,59.13
2022-09-14T16:25:02.080Z,59.31
2022-09-14T16:27:30.904Z,59.98
2022-09-14T16:29:58.779Z,59.54
2022-09-14T16:32:26.547Z,60.52
2022-09-14T16:34:55.747Z,60.67
2022-09-14T16:37:23.498Z,60.32
2022-09-14T16:39:51.504Z,61.17
2022-09-14T16:42:20.085Z,61.20
2022-09-14T16:44:48.017Z,60.45
2022-09-14T16:47:15.919Z,60.54
2022-09-14T16:49:44.023Z,60.81
2022-09-14T16:52:14.595Z,60.90
2022-09-14T16:54:42.659Z,61.61
2022-09-14T16:57:10.617Z,61.73
2022-09-14T16:59:38.797Z,61.60
2022-09-14T17:02:06.682Z,61.98
2022-09-14T17:04:34.523Z,61.89
2022-09-14T17:07:02.271Z,62.23
2022-09-14T17:09:33.112Z,62.24
2022-09-14T17:12:01.147Z,63.02
2022-09-14T17:14:33.056Z,62.98
2022-09-14T17:17:01.354Z,62.72
2022-09-14T17:19:29.382Z,63.60
2022-09-14T17:21:57.310Z,63.61
2022-09-14T17:24:25.963Z,63.86
2022-09-14T17:26:55.111Z,63.96
2022-09-14T17:29:23.575Z,64.08
2022-09-14T17:31:51.338Z,64.41
2022-09-14T17:34:19.209Z,65.35
2022-09-14T17:36:47.189Z,65.55
2022-09-14T17:39:15.532Z,65.37
2022-09-14T17:41:44.247Z,66.38
2022-09-14T17:44:15.858Z,67.23
2022-09-14T17:46:51.971Z,67.90
2022-09-14T17:49:21.829Z,68.49
2022-09-14T17:51:50.717Z,68.95
2022-09-14T17:54:19.608Z,69.15
2022-09-14T17:56:47.817Z,69.78
2022-09-14T17:59:22.501Z,70.07
2022-09-14T18:01:50.862Z,70.03
2022-09-14T18:04:18.739Z,69.53
2022-09-14T18:06:49.711Z,69.83
2022-09-14T18:09:21.137Z,70.33
2022-09-14T18:11:50.884Z,70.45
2022-09-14T18:14:20.048Z,70.18
2022-09-14T18:16:48.035Z,71.29
2022-09-14T18:19:16.472Z,71.24
2022-09-14T18:21:45.910Z,72.22
2022-09-14T18:24:15.928Z,72.86
2022-09-14T18:26:46.166Z,72.74
2022-09-14T18:29:18.284Z,73.29
2022-09-14T18:31:47.541Z,73.02
2022-09-14T18:34:17.526Z,73.87
2022-09-14T18:36:45.423Z,73.77
2022-09-14T18:39:14.079Z,74.01
2022-09-14T18:41:43.537Z,74.25
2022-09-14T18:44:11.389Z,74.00
2022-09-14T18:46:39.370Z,74.77
2022-09-14T18:49:10.758Z,74.32
2022-09-14T18:51:40.510Z,75.38
2022-09-14T18:54:12.806Z,76.15
2022-09-14T18:56:42.665Z,76.22
2022-09-14T18:59:15.447Z,76.60
2022-09-14T19:01:46.318Z,76.20
2022-09-14T19:04:15.776Z,76.19
2022-09-14T19:06:44.689Z,76.49
2022-09-14T19:09:13.110Z,76.32
2022-09-14T19:11:41.988Z,76.43
2022-09-14T19:14:18.908Z,76.61
2022-09-14T19:16:50.336Z,76.90
2022-09-14T19:19:21.135Z,78.20
2022-09-14T19:21:49.222Z,79.04
2022-09-14T19:24:18.480Z,78.02
2022-09-14T19:26:48.999Z,77.77
2022-09-14T19:29:25.014Z,78.23
2022-09-14T19:31:53.417Z,78.51
2022-09-14T19:34:26.972Z,78.76
2022-09-14T19:37:04.429Z,79.90
2022-09-14T19:39:34.110Z,80.27
2022-09-14T19:42:03.303Z,81.22
2022-09-14T19:44:31.444Z,81.27
2022-09-14T19:46:59.826Z,81.75
2022-09-14T19:49:30.699Z,80.44
2022-09-14T19:51:59.999Z,81.17
2022-09-14T19:54:27.886Z,81.09
2022-09-14T19:56:58.757Z,80.74
2022-09-14T19:59:28.828Z,80.59
2022-09-14T20:02:00.439Z,80.74
2022-09-14T20:04:29.866Z,81.67
2022-09-14T20:06:57.831Z,82.16
2022-09-14T20:09:26.062Z,82.45
2022-09-14T20:11:55.518Z,81.67
2022-09-14T20:14:25.839Z,82.28
2022-09-14T20:16:56.441Z,82.52
2022-09-14T20:19:27.726Z,82.83
2022-09-14T20:21:57.441Z,81.95
2022-09-14T20:24:28.421Z,81.58
2022-09-14T20:27:00.255Z,82.01
2022-09-14T20:29:31.280Z,82.58
2022-09-14T20:32:00.902Z,82.09
2022-09-14T20:34:29.807Z,82.59
2022-09-14T20:37:01.618Z,81.93
2022-09-14T20:39:30.406Z,81.45
2022-09-14T20:41:58.275Z,81.28
2022-09-14T20:44:26.024Z,80.62
2022-09-14T20:46:53.761Z,79.89
2022-09-14T20:49:23.750Z,80.43
2022-09-14T20:51:52.656Z,80.29
2022-09-14T20:54:22.974Z,81.04
2022-09-14T20:56:50.868Z,80.13
2022-09-14T20:59:19.681Z,80.89
2022-09-14T21:01:49.804Z,79.57
2022-09-14T21:04:20.919Z,79.75
2022-09-14T21:06:52.539Z,80.15
2022-09-14T21:09:24.980Z,79.94
2022-09-14T21:11:53.858Z,79.55
2022-09-14T21:14:22.715Z,79.39
2022-09-14T21:16:56.836Z,80.07
2022-09-14T21:19:28.142Z,78.94
2022-09-14T21:21:56.460Z,79.64
2022-09-14T21:24:26.004Z,79.55
2022-09-14T21:26:55.995Z,79.41
2022-09-14T21:29:24.521Z,79.28
2022-09-14T21:31:53.094Z,79.24
2022-09-14T21:34:21.368Z,79.06
2022-09-14T21:36:51.347Z,79.68
2022-09-14T21:39:25.454Z,79.09
2022-09-14T21:41:59.328Z,78.82
2022-09-14T21:44:29.918Z,79.05
2022-09-14T21:46:58.493Z,78.51
2022-09-14T21:49:26.462Z,79.97
2022-09-14T21:51:54.514Z,79.10
2022-09-14T21:54:22.358Z,78.70
2022-09-14T21:56:50.147Z,78.69
2022-09-14T21:59:22.637Z,79.38
2022-09-14T22:01:51.649Z,79.50
2022-09-14T22:04:23.124Z,79.26
2022-09-14T22:06:51.695Z,79.32
2022-09-14T22:09:26.795Z,78.88
2022-09-14T22:11:55.744Z,79.22
2022-09-14T22:14:27.928Z,79.15
2022-09-14T22:16:56.170Z,79.35
2022-09-14T22:19:27.404Z,78.88
2022-09-14T22:21:56.492Z,78.43
2022-09-14T22:24:37.040Z,77.96
2022-09-14T22:27:07.295Z,78.14
2022-09-14T22:29:37.698Z,78.91
2022-09-14T22:32:08.104Z,78.76
2022-09-14T22:34:36.537Z,79.77
2022-09-14T22:37:05.187Z,79.46
2022-09-14T22:39:33.143Z,79.37
2022-09-14T22:42:01.221Z,79.15
2022-09-14T22:44:29.056Z,78.56
2022-09-14T22:46:58.144Z,78.98
2022-09-14T22:49:26.269Z,78.77
2022-09-14T22:51:54.180Z,78.38
2022-09-14T22:54:22.292Z,78.59
2022-09-14T22:56:50.024Z,78.23
2022-09-14T22:59:17.814Z,77.97
2022-09-14T23:01:45.822Z,77.70
2022-09-14T23:04:15.084Z,77.53
2022-09-14T23:06:47.450Z,77.30
2022-09-14T23:09:18.848Z,77.71
2022-09-14T23:11:46.935Z,77.33
2022-09-14T23:14:16.423Z,76.32
2022-09-14T23:16:45.115Z,76.39
2022-09-14T23:19:18.092Z,76.43
2022-09-14T23:21:46.502Z,75.93
2022-09-14T23:24:15.449Z,75.05
2022-09-14T23:26:43.572Z,75.32
2022-09-14T23:29:15.270Z,75.18
2022-09-14T23:31:43.995Z,75.45
2022-09-14T23:34:12.973Z,76.54
2022-09-14T23:36:42.499Z,76.70
2022-09-14T23:39:10.258Z,77.35
2022-09-14T23:41:39.785Z,76.11
2022-09-14T23:44:09.345Z,76.28
2022-09-14T23:46:37.097Z,76.16
2022-09-14T23:49:05.079Z,76.35
2022-09-14T23:51:33.159Z,77.50
2022-09-14T23:54:02.295Z,77.94
2022-09-14T23:56:30.227Z,77.21
2022-09-14T23:58:58.164Z,76.91
